sensor_id;sensor_type;location;lat;lon;timestamp;P1;durP1;ratioP1;P2;durP2;ratioP2
62925;SDS011;55732;52.248;-0.844;2023-01-13T00:02:21;12.20;;;2.70;;
62925;SDS011;55732;52.248;-0.844;2023-01-13T00:04:47;8.50;;;2.50;;
62925;SDS011;55732;52.248;-0.844;2023-01-13T00:07:13;10.90;;;3.20;;
62925;SDS011;55732;52.248;-0.844;2023-01-13T00:09:38;12.60;;;3.80;;
62925;SDS011;55732;52.248;-0.844;2023-01-13T00:12:04;10.60;;;2.40;;
62925;SDS011;55732;52.248;-0.844;2023-01-13T00:14:34;12.90;;;3.20;;
62925;SDS011;55732;52.248;-0.844;2023-01-13T00:17:00;14.00;;;2.80;;
62925;SDS011;55732;52.248;-0.844;2023-01-13T00:19:27;11.00;;;2.60;;
62925;SDS011;55732;52.248;-0.844;2023-01-13T00:21:52;15.30;;;2.80;;
62925;SDS011;55732;52.248;-0.844;2023-01-13T00:24:18;12.20;;;2.70;;
62925;SDS011;55732;52.248;-0.844;2023-01-13T00:26:43;9.70;;;2.50;;
62925;SDS011;55732;52.248;-0.844;2023-01-13T00:29:09;8.20;;;2.40;;
62925;SDS011;55732;52.248;-0.844;2023-01-13T00:31:34;10.00;;;2.90;;
62925;SDS011;55732;52.248;-0.844;2023-01-13T00:34:00;14.50;;;2.90;;
62925;SDS011;55732;52.248;-0.844;2023-01-13T00:36:25;14.10;;;2.60;;
62925;SDS011;55732;52.248;-0.844;2023-01-13T00:38:52;13.00;;;2.30;;
62925;SDS011;55732;52.248;-0.844;2023-01-13T00:41:18;9.40;;;2.70;;
62925;SDS011;55732;52.248;-0.844;2023-01-13T00:43:45;12.00;;;2.30;;
62925;SDS011;55732;52.248;-0.844;2023-01-13T00:46:12;13.50;;;2.60;;
62925;SDS011;55732;52.248;-0.844;2023-01-13T00:48:39;10.70;;;3.30;;
62925;SDS011;55732;52.248;-0.844;2023-01-13T00:53:33;12.30;;;2.80;;
62925;SDS011;55732;52.248;-0.844;2023-01-13T00:56:04;11.00;;;2.50;;
62925;SDS011;55732;52.248;-0.844;2023-01-13T00:58:42;13.20;;;3.10;;
62925;SDS011;55732;52.248;-0.844;2023-01-13T01:01:10;15.30;;;3.60;;
62925;SDS011;55732;52.248;-0.844;2023-01-13T01:03:38;12.10;;;3.50;;
62925;SDS011;55732;52.248;-0.844;2023-01-13T01:06:24;14.00;;;2.70;;
62925;SDS011;55732;52.248;-0.844;2023-01-13T01:08:51;10.00;;;2.40;;
62925;SDS011;55732;52.248;-0.844;2023-01-13T01:11:19;8.70;;;2.10;;
62925;SDS011;55732;52.248;-0.844;2023-01-13T01:13:46;17.10;;;2.80;;
62925;SDS011;55732;52.248;-0.844;2023-01-13T01:16:14;8.90;;;1.90;;
62925;SDS011;55732;52.248;-0.844;2023-01-13T01:21:08;9.30;;;2.50;;
62925;SDS011;55732;52.248;-0.844;2023-01-13T01:23:35;10.30;;;2.40;;
62925;SDS011;55732;52.248;-0.844;2023-01-13T01:26:03;8.50;;;2.20;;
62925;SDS011;55732;52.248;-0.844;2023-01-13T01:28:38;9.30;;;1.70;;
62925;SDS011;55732;52.248;-0.844;2023-01-13T01:31:05;10.40;;;2.70;;
62925;SDS011;55732;52.248;-0.844;2023-01-13T01:33:32;9.40;;;2.20;;
62925;SDS011;55732;52.248;-0.844;2023-01-13T01:35:59;13.90;;;2.50;;
62925;SDS011;55732;52.248;-0.844;2023-01-13T01:38:25;7.50;;;2.00;;
62925;SDS011;55732;52.248;-0.844;2023-01-13T01:40:50;8.00;;;2.20;;
62925;SDS011;55732;52.248;-0.844;2023-01-13T01:43:18;11.80;;;2.80;;
62925;SDS011;55732;52.248;-0.844;2023-01-13T01:46:04;12.20;;;2.70;;
62925;SDS011;55732;52.248;-0.844;2023-01-13T01:48:32;13.00;;;2.50;;
62925;SDS011;55732;52.248;-0.844;2023-01-13T01:51:01;9.60;;;2.30;;
62925;SDS011;55732;52.248;-0.844;2023-01-13T01:53:27;14.50;;;2.60;;
62925;SDS011;55732;52.248;-0.844;2023-01-13T01:55:55;10.50;;;2.40;;
62925;SDS011;55732;52.248;-0.844;2023-01-13T02:00:53;10.10;;;2.70;;
62925;SDS011;55732;52.248;-0.844;2023-01-13T02:03:18;13.90;;;2.60;;
62925;SDS011;55732;52.248;-0.844;2023-01-13T02:05:44;10.50;;;2.60;;
62925;SDS011;55732;52.248;-0.844;2023-01-13T02:08:10;10.20;;;2.80;;
62925;SDS011;55732;52.248;-0.844;2023-01-13T02:10:38;10.00;;;2.50;;
62925;SDS011;55732;52.248;-0.844;2023-01-13T02:13:06;15.30;;;2.90;;
62925;SDS011;55732;52.248;-0.844;2023-01-13T02:21:20;10.00;;;2.80;;
62925;SDS011;55732;52.248;-0.844;2023-01-13T02:30:07;11.30;;;2.80;;
62925;SDS011;55732;52.248;-0.844;2023-01-13T02:35:56;9.90;;;2.20;;
62925;SDS011;55732;52.248;-0.844;2023-01-13T02:38:44;5.60;;;2.10;;
62925;SDS011;55732;52.248;-0.844;2023-01-13T02:41:13;10.20;;;2.70;;
62925;SDS011;55732;52.248;-0.844;2023-01-13T02:44:07;8.60;;;2.50;;
62925;SDS011;55732;52.248;-0.844;2023-01-13T02:46:41;9.10;;;2.60;;
62925;SDS011;55732;52.248;-0.844;2023-01-13T02:49:14;8.30;;;2.10;;
62925;SDS011;55732;52.248;-0.844;2023-01-13T02:51:46;12.10;;;2.30;;
62925;SDS011;55732;52.248;-0.844;2023-01-13T02:54:16;11.50;;;2.50;;
62925;SDS011;55732;52.248;-0.844;2023-01-13T02:56:46;11.20;;;2.30;;
62925;SDS011;55732;52.248;-0.844;2023-01-13T02:59:15;11.50;;;1.90;;
62925;SDS011;55732;52.248;-0.844;2023-01-13T03:01:41;10.30;;;2.70;;
62925;SDS011;55732;52.248;-0.844;2023-01-13T03:04:13;12.00;;;2.90;;
62925;SDS011;55732;52.248;-0.844;2023-01-13T03:07:04;8.90;;;2.40;;
62925;SDS011;55732;52.248;-0.844;2023-01-13T03:09:41;10.30;;;2.40;;
62925;SDS011;55732;52.248;-0.844;2023-01-13T03:17:54;6.20;;;2.00;;
62925;SDS011;55732;52.248;-0.844;2023-01-13T03:20:31;14.30;;;2.60;;
62925;SDS011;55732;52.248;-0.844;2023-01-13T03:25:33;7.80;;;2.30;;
62925;SDS011;55732;52.248;-0.844;2023-01-13T03:28:05;9.00;;;2.20;;
62925;SDS011;55732;52.248;-0.844;2023-01-13T03:31:21;7.30;;;1.90;;
62925;SDS011;55732;52.248;-0.844;2023-01-13T03:33:35;4.30;;;1.60;;
62925;SDS011;55732;52.248;-0.844;2023-01-13T03:36:10;9.40;;;2.50;;
62925;SDS011;55732;52.248;-0.844;2023-01-13T03:39:13;10.50;;;2.60;;
62925;SDS011;55732;52.248;-0.844;2023-01-13T03:41:37;9.00;;;2.40;;
62925;SDS011;55732;52.248;-0.844;2023-01-13T03:44:07;9.60;;;2.50;;
62925;SDS011;55732;52.248;-0.844;2023-01-13T03:49:30;11.00;;;2.60;;
62925;SDS011;55732;52.248;-0.844;2023-01-13T03:52:02;11.60;;;2.10;;
62925;SDS011;55732;52.248;-0.844;2023-01-13T03:54:31;7.10;;;2.30;;
62925;SDS011;55732;52.248;-0.844;2023-01-13T03:57:04;14.30;;;2.50;;
62925;SDS011;55732;52.248;-0.844;2023-01-13T03:59:36;7.40;;;2.40;;
62925;SDS011;55732;52.248;-0.844;2023-01-13T04:02:11;9.90;;;2.50;;
62925;SDS011;55732;52.248;-0.844;2023-01-13T04:04:59;12.10;;;2.30;;
62925;SDS011;55732;52.248;-0.844;2023-01-13T04:10:22;8.30;;;1.80;;
62925;SDS011;55732;52.248;-0.844;2023-01-13T04:13:03;4.40;;;1.80;;
62925;SDS011;55732;52.248;-0.844;2023-01-13T04:15:36;9.60;;;2.70;;
62925;SDS011;55732;52.248;-0.844;2023-01-13T04:18:20;11.20;;;2.60;;
62925;SDS011;55732;52.248;-0.844;2023-01-13T04:20:58;7.00;;;2.10;;
62925;SDS011;55732;52.248;-0.844;2023-01-13T04:23:25;8.40;;;2.60;;
62925;SDS011;55732;52.248;-0.844;2023-01-13T04:25:55;11.50;;;2.60;;
62925;SDS011;55732;52.248;-0.844;2023-01-13T04:28:21;11.10;;;2.00;;
62925;SDS011;55732;52.248;-0.844;2023-01-13T04:30:47;5.60;;;2.30;;
62925;SDS011;55732;52.248;-0.844;2023-01-13T04:33:14;9.40;;;2.60;;
62925;SDS011;55732;52.248;-0.844;2023-01-13T04:35:40;9.20;;;2.30;;
62925;SDS011;55732;52.248;-0.844;2023-01-13T04:38:07;8.80;;;2.50;;
62925;SDS011;55732;52.248;-0.844;2023-01-13T04:40:35;11.60;;;2.00;;
62925;SDS011;55732;52.248;-0.844;2023-01-13T04:43:00;6.20;;;2.20;;
62925;SDS011;55732;52.248;-0.844;2023-01-13T04:45:26;9.10;;;2.10;;
62925;SDS011;55732;52.248;-0.844;2023-01-13T04:47:52;8.20;;;2.20;;
62925;SDS011;55732;52.248;-0.844;2023-01-13T04:50:17;8.30;;;2.20;;
62925;SDS011;55732;52.248;-0.844;2023-01-13T04:52:46;8.90;;;2.50;;
62925;SDS011;55732;52.248;-0.844;2023-01-13T04:55:16;7.00;;;2.40;;
62925;SDS011;55732;52.248;-0.844;2023-01-13T04:57:42;11.30;;;2.30;;
62925;SDS011;55732;52.248;-0.844;2023-01-13T05:00:08;9.00;;;1.90;;
62925;SDS011;55732;52.248;-0.844;2023-01-13T05:02:36;7.60;;;2.00;;
62925;SDS011;55732;52.248;-0.844;2023-01-13T05:05:02;8.10;;;2.00;;
62925;SDS011;55732;52.248;-0.844;2023-01-13T05:07:27;10.30;;;2.40;;
62925;SDS011;55732;52.248;-0.844;2023-01-13T05:09:53;10.60;;;2.40;;
62925;SDS011;55732;52.248;-0.844;2023-01-13T05:12:18;7.60;;;2.40;;
62925;SDS011;55732;52.248;-0.844;2023-01-13T05:15:02;9.50;;;2.00;;
62925;SDS011;55732;52.248;-0.844;2023-01-13T05:17:47;8.80;;;2.30;;
62925;SDS011;55732;52.248;-0.844;2023-01-13T05:20:14;5.50;;;1.80;;
62925;SDS011;55732;52.248;-0.844;2023-01-13T05:22:40;7.40;;;2.40;;
62925;SDS011;55732;52.248;-0.844;2023-01-13T05:25:24;5.30;;;1.80;;
62925;SDS011;55732;52.248;-0.844;2023-01-13T05:27:51;8.10;;;2.30;;
62925;SDS011;55732;52.248;-0.844;2023-01-13T05:30:23;8.80;;;2.10;;
62925;SDS011;55732;52.248;-0.844;2023-01-13T05:32:53;4.80;;;1.30;;
62925;SDS011;55732;52.248;-0.844;2023-01-13T05:35:19;13.20;;;2.10;;
62925;SDS011;55732;52.248;-0.844;2023-01-13T05:37:45;5.00;;;2.00;;
62925;SDS011;55732;52.248;-0.844;2023-01-13T05:40:11;11.00;;;2.00;;
62925;SDS011;55732;52.248;-0.844;2023-01-13T05:48:21;10.40;;;2.10;;
62925;SDS011;55732;52.248;-0.844;2023-01-13T05:50:48;5.40;;;2.00;;
62925;SDS011;55732;52.248;-0.844;2023-01-13T05:53:15;6.10;;;1.70;;
62925;SDS011;55732;52.248;-0.844;2023-01-13T05:55:42;5.40;;;1.60;;
62925;SDS011;55732;52.248;-0.844;2023-01-13T05:58:09;6.80;;;1.70;;
62925;SDS011;55732;52.248;-0.844;2023-01-13T06:00:36;6.20;;;1.90;;
62925;SDS011;55732;52.248;-0.844;2023-01-13T06:03:02;3.00;;;1.60;;
62925;SDS011;55732;52.248;-0.844;2023-01-13T06:05:29;6.20;;;1.50;;
62925;SDS011;55732;52.248;-0.844;2023-01-13T06:07:56;7.90;;;1.40;;
62925;SDS011;55732;52.248;-0.844;2023-01-13T06:10:22;5.30;;;1.60;;
62925;SDS011;55732;52.248;-0.844;2023-01-13T06:12:48;6.60;;;1.60;;
62925;SDS011;55732;52.248;-0.844;2023-01-13T06:15:14;5.40;;;1.80;;
62925;SDS011;55732;52.248;-0.844;2023-01-13T06:17:39;6.30;;;1.60;;
62925;SDS011;55732;52.248;-0.844;2023-01-13T06:20:05;7.80;;;1.60;;
62925;SDS011;55732;52.248;-0.844;2023-01-13T06:22:33;5.10;;;1.50;;
62925;SDS011;55732;52.248;-0.844;2023-01-13T06:25:07;3.30;;;1.50;;
62925;SDS011;55732;52.248;-0.844;2023-01-13T06:27:40;2.60;;;1.10;;
62925;SDS011;55732;52.248;-0.844;2023-01-13T06:30:06;4.00;;;1.50;;
62925;SDS011;55732;52.248;-0.844;2023-01-13T06:32:33;3.60;;;1.60;;
62925;SDS011;55732;52.248;-0.844;2023-01-13T06:35:06;3.10;;;1.40;;
62925;SDS011;55732;52.248;-0.844;2023-01-13T06:37:35;3.00;;;1.40;;
62925;SDS011;55732;52.248;-0.844;2023-01-13T06:40:02;4.00;;;1.60;;
62925;SDS011;55732;52.248;-0.844;2023-01-13T06:42:31;4.80;;;1.90;;
62925;SDS011;55732;52.248;-0.844;2023-01-13T06:45:18;5.00;;;1.30;;
62925;SDS011;55732;52.248;-0.844;2023-01-13T06:47:44;3.20;;;1.30;;
62925;SDS011;55732;52.248;-0.844;2023-01-13T06:50:10;4.60;;;1.70;;
62925;SDS011;55732;52.248;-0.844;2023-01-13T06:52:36;5.00;;;1.40;;
62925;SDS011;55732;52.248;-0.844;2023-01-13T06:55:01;4.80;;;1.60;;
62925;SDS011;55732;52.248;-0.844;2023-01-13T06:57:27;5.10;;;1.60;;
62925;SDS011;55732;52.248;-0.844;2023-01-13T06:59:53;6.90;;;1.70;;
62925;SDS011;55732;52.248;-0.844;2023-01-13T07:02:18;5.70;;;1.50;;
62925;SDS011;55732;52.248;-0.844;2023-01-13T07:04:44;3.40;;;1.40;;
62925;SDS011;55732;52.248;-0.844;2023-01-13T07:07:11;6.00;;;1.60;;
62925;SDS011;55732;52.248;-0.844;2023-01-13T07:09:37;7.70;;;2.20;;
62925;SDS011;55732;52.248;-0.844;2023-01-13T07:12:03;8.00;;;1.70;;
62925;SDS011;55732;52.248;-0.844;2023-01-13T07:14:28;2.30;;;1.50;;
62925;SDS011;55732;52.248;-0.844;2023-01-13T07:17:12;2.60;;;1.10;;
62925;SDS011;55732;52.248;-0.844;2023-01-13T07:19:38;8.60;;;1.90;;
62925;SDS011;55732;52.248;-0.844;2023-01-13T07:22:03;5.50;;;2.00;;
62925;SDS011;55732;52.248;-0.844;2023-01-13T07:24:28;5.50;;;1.90;;
62925;SDS011;55732;52.248;-0.844;2023-01-13T07:26:54;4.90;;;1.70;;
62925;SDS011;55732;52.248;-0.844;2023-01-13T07:29:19;8.20;;;2.20;;
62925;SDS011;55732;52.248;-0.844;2023-01-13T07:31:45;4.60;;;1.80;;
62925;SDS011;55732;52.248;-0.844;2023-01-13T07:34:10;6.10;;;1.70;;
62925;SDS011;55732;52.248;-0.844;2023-01-13T07:36:36;3.60;;;1.40;;
62925;SDS011;55732;52.248;-0.844;2023-01-13T07:39:02;6.00;;;1.70;;
62925;SDS011;55732;52.248;-0.844;2023-01-13T07:41:27;3.30;;;1.40;;
62925;SDS011;55732;52.248;-0.844;2023-01-13T07:44:11;5.60;;;1.50;;
62925;SDS011;55732;52.248;-0.844;2023-01-13T07:46:37;5.00;;;1.80;;
62925;SDS011;55732;52.248;-0.844;2023-01-13T07:49:03;6.40;;;2.20;;
62925;SDS011;55732;52.248;-0.844;2023-01-13T07:51:29;9.00;;;2.00;;
62925;SDS011;55732;52.248;-0.844;2023-01-13T07:53:55;4.90;;;1.90;;
62925;SDS011;55732;52.248;-0.844;2023-01-13T07:56:20;4.80;;;1.50;;
62925;SDS011;55732;52.248;-0.844;2023-01-13T07:58:46;3.10;;;1.40;;
62925;SDS011;55732;52.248;-0.844;2023-01-13T08:01:14;3.50;;;1.30;;
62925;SDS011;55732;52.248;-0.844;2023-01-13T08:03:41;7.60;;;2.00;;
62925;SDS011;55732;52.248;-0.844;2023-01-13T08:06:07;2.90;;;1.20;;
62925;SDS011;55732;52.248;-0.844;2023-01-13T08:08:34;4.30;;;1.70;;
62925;SDS011;55732;52.248;-0.844;2023-01-13T08:11:00;6.40;;;1.90;;
62925;SDS011;55732;52.248;-0.844;2023-01-13T08:13:27;7.50;;;1.90;;
62925;SDS011;55732;52.248;-0.844;2023-01-13T08:15:58;3.10;;;1.60;;
62925;SDS011;55732;52.248;-0.844;2023-01-13T08:18:29;7.50;;;2.30;;
62925;SDS011;55732;52.248;-0.844;2023-01-13T08:20:59;2.30;;;1.40;;
62925;SDS011;55732;52.248;-0.844;2023-01-13T08:23:43;5.60;;;1.70;;
62925;SDS011;55732;52.248;-0.844;2023-01-13T08:26:11;5.00;;;1.80;;
62925;SDS011;55732;52.248;-0.844;2023-01-13T08:28:38;5.50;;;1.80;;
62925;SDS011;55732;52.248;-0.844;2023-01-13T08:31:08;6.70;;;1.90;;
62925;SDS011;55732;52.248;-0.844;2023-01-13T08:33:35;6.70;;;1.60;;
62925;SDS011;55732;52.248;-0.844;2023-01-13T08:36:05;8.20;;;2.10;;
62925;SDS011;55732;52.248;-0.844;2023-01-13T08:38:33;4.90;;;1.70;;
62925;SDS011;55732;52.248;-0.844;2023-01-13T08:40:59;4.00;;;1.40;;
62925;SDS011;55732;52.248;-0.844;2023-01-13T08:43:25;3.60;;;1.60;;
62925;SDS011;55732;52.248;-0.844;2023-01-13T08:45:57;6.40;;;1.90;;
62925;SDS011;55732;52.248;-0.844;2023-01-13T08:48:25;7.10;;;1.70;;
62925;SDS011;55732;52.248;-0.844;2023-01-13T08:50:52;6.30;;;1.90;;
62925;SDS011;55732;52.248;-0.844;2023-01-13T08:53:19;4.70;;;1.40;;
62925;SDS011;55732;52.248;-0.844;2023-01-13T08:55:45;8.10;;;2.30;;
62925;SDS011;55732;52.248;-0.844;2023-01-13T08:58:11;7.70;;;2.00;;
62925;SDS011;55732;52.248;-0.844;2023-01-13T09:00:36;5.20;;;1.70;;
62925;SDS011;55732;52.248;-0.844;2023-01-13T09:03:02;3.70;;;1.90;;
62925;SDS011;55732;52.248;-0.844;2023-01-13T09:05:28;10.00;;;2.00;;
62925;SDS011;55732;52.248;-0.844;2023-01-13T09:07:53;7.70;;;1.90;;
62925;SDS011;55732;52.248;-0.844;2023-01-13T09:10:19;6.40;;;2.00;;
62925;SDS011;55732;52.248;-0.844;2023-01-13T09:12:44;6.70;;;2.10;;
62925;SDS011;55732;52.248;-0.844;2023-01-13T09:15:28;5.60;;;2.30;;
62925;SDS011;55732;52.248;-0.844;2023-01-13T09:17:54;6.70;;;2.10;;
62925;SDS011;55732;52.248;-0.844;2023-01-13T09:20:19;7.20;;;1.60;;
62925;SDS011;55732;52.248;-0.844;2023-01-13T09:22:45;9.50;;;1.90;;
62925;SDS011;55732;52.248;-0.844;2023-01-13T09:25:11;4.10;;;1.70;;
62925;SDS011;55732;52.248;-0.844;2023-01-13T09:27:38;4.80;;;1.70;;
62925;SDS011;55732;52.248;-0.844;2023-01-13T09:30:04;7.30;;;2.00;;
62925;SDS011;55732;52.248;-0.844;2023-01-13T09:32:30;7.00;;;2.10;;
62925;SDS011;55732;52.248;-0.844;2023-01-13T09:34:56;7.80;;;1.80;;
62925;SDS011;55732;52.248;-0.844;2023-01-13T09:37:25;7.20;;;1.90;;
62925;SDS011;55732;52.248;-0.844;2023-01-13T09:39:53;7.30;;;2.10;;
62925;SDS011;55732;52.248;-0.844;2023-01-13T09:42:21;6.30;;;2.10;;
62925;SDS011;55732;52.248;-0.844;2023-01-13T09:45:22;3.70;;;1.80;;
62925;SDS011;55732;52.248;-0.844;2023-01-13T09:48:04;6.30;;;2.10;;
62925;SDS011;55732;52.248;-0.844;2023-01-13T09:53:33;5.00;;;1.70;;
62925;SDS011;55732;52.248;-0.844;2023-01-13T09:56:02;6.40;;;1.70;;
62925;SDS011;55732;52.248;-0.844;2023-01-13T09:58:29;4.80;;;1.70;;
62925;SDS011;55732;52.248;-0.844;2023-01-13T10:03:22;8.40;;;1.70;;
62925;SDS011;55732;52.248;-0.844;2023-01-13T10:05:59;5.80;;;2.00;;
62925;SDS011;55732;52.248;-0.844;2023-01-13T10:08:36;4.00;;;1.80;;
62925;SDS011;55732;52.248;-0.844;2023-01-13T10:11:04;4.80;;;1.80;;
62925;SDS011;55732;52.248;-0.844;2023-01-13T10:13:51;6.00;;;1.80;;
62925;SDS011;55732;52.248;-0.844;2023-01-13T10:16:26;5.20;;;2.10;;
62925;SDS011;55732;52.248;-0.844;2023-01-13T10:19:08;8.00;;;2.00;;
62925;SDS011;55732;52.248;-0.844;2023-01-13T10:24:14;6.60;;;2.00;;
62925;SDS011;55732;52.248;-0.844;2023-01-13T10:27:06;7.60;;;2.20;;
62925;SDS011;55732;52.248;-0.844;2023-01-13T10:29:40;7.60;;;2.10;;
62925;SDS011;55732;52.248;-0.844;2023-01-13T10:32:06;6.40;;;1.90;;
62925;SDS011;55732;52.248;-0.844;2023-01-13T10:34:31;9.50;;;1.80;;
62925;SDS011;55732;52.248;-0.844;2023-01-13T10:37:22;6.30;;;2.10;;
62925;SDS011;55732;52.248;-0.844;2023-01-13T10:39:52;3.80;;;1.60;;
62925;SDS011;55732;52.248;-0.844;2023-01-13T10:42:21;5.60;;;1.80;;
62925;SDS011;55732;52.248;-0.844;2023-01-13T10:44:52;9.40;;;2.20;;
62925;SDS011;55732;52.248;-0.844;2023-01-13T10:52:40;9.70;;;2.60;;
62925;SDS011;55732;52.248;-0.844;2023-01-13T10:55:23;5.80;;;2.10;;
62925;SDS011;55732;52.248;-0.844;2023-01-13T10:57:49;6.00;;;1.70;;
62925;SDS011;55732;52.248;-0.844;2023-01-13T11:00:27;6.30;;;1.80;;
62925;SDS011;55732;52.248;-0.844;2023-01-13T11:05:58;5.80;;;2.00;;
62925;SDS011;55732;52.248;-0.844;2023-01-13T11:08:25;9.60;;;2.10;;
62925;SDS011;55732;52.248;-0.844;2023-01-13T11:10:54;6.00;;;1.90;;
62925;SDS011;55732;52.248;-0.844;2023-01-13T11:15:52;7.60;;;2.20;;
62925;SDS011;55732;52.248;-0.844;2023-01-13T11:21:23;4.60;;;1.80;;
62925;SDS011;55732;52.248;-0.844;2023-01-13T11:26:42;8.10;;;1.90;;
62925;SDS011;55732;52.248;-0.844;2023-01-13T11:29:42;5.50;;;1.70;;
62925;SDS011;55732;52.248;-0.844;2023-01-13T11:32:23;8.60;;;2.10;;
62925;SDS011;55732;52.248;-0.844;2023-01-13T11:34:52;4.70;;;1.70;;
62925;SDS011;55732;52.248;-0.844;2023-01-13T11:37:31;7.10;;;2.20;;
62925;SDS011;55732;52.248;-0.844;2023-01-13T11:48:01;6.20;;;1.60;;
62925;SDS011;55732;52.248;-0.844;2023-01-13T11:50:29;6.10;;;1.80;;
62925;SDS011;55732;52.248;-0.844;2023-01-13T11:53:03;5.60;;;1.80;;
62925;SDS011;55732;52.248;-0.844;2023-01-13T12:01:02;6.40;;;2.20;;
62925;SDS011;55732;52.248;-0.844;2023-01-13T12:06:57;6.00;;;1.60;;
62925;SDS011;55732;52.248;-0.844;2023-01-13T12:09:51;6.50;;;1.80;;
62925;SDS011;55732;52.248;-0.844;2023-01-13T12:12:37;4.40;;;1.70;;
62925;SDS011;55732;52.248;-0.844;2023-01-13T12:18:30;3.20;;;1.70;;
62925;SDS011;55732;52.248;-0.844;2023-01-13T12:23:43;6.80;;;1.70;;
62925;SDS011;55732;52.248;-0.844;2023-01-13T12:26:15;4.90;;;1.60;;
62925;SDS011;55732;52.248;-0.844;2023-01-13T12:28:43;3.60;;;1.50;;
62925;SDS011;55732;52.248;-0.844;2023-01-13T12:31:28;3.60;;;1.60;;
62925;SDS011;55732;52.248;-0.844;2023-01-13T12:42:14;5.00;;;1.30;;
62925;SDS011;55732;52.248;-0.844;2023-01-13T12:45:21;5.20;;;1.80;;
62925;SDS011;55732;52.248;-0.844;2023-01-13T12:47:54;9.10;;;2.00;;
62925;SDS011;55732;52.248;-0.844;2023-01-13T12:52:52;5.20;;;2.40;;
62925;SDS011;55732;52.248;-0.844;2023-01-13T12:55:23;7.10;;;1.60;;
62925;SDS011;55732;52.248;-0.844;2023-01-13T13:03:17;4.30;;;1.60;;
62925;SDS011;55732;52.248;-0.844;2023-01-13T13:06:01;6.50;;;1.60;;
62925;SDS011;55732;52.248;-0.844;2023-01-13T13:09:00;6.80;;;1.80;;
62925;SDS011;55732;52.248;-0.844;2023-01-13T13:11:44;2.70;;;1.50;;
62925;SDS011;55732;52.248;-0.844;2023-01-13T13:15:16;6.50;;;1.70;;
62925;SDS011;55732;52.248;-0.844;2023-01-13T13:17:59;8.30;;;2.30;;
62925;SDS011;55732;52.248;-0.844;2023-01-13T13:19:57;4.00;;;1.70;;
62925;SDS011;55732;52.248;-0.844;2023-01-13T13:35:30;2.80;;;1.20;;
62925;SDS011;55732;52.248;-0.844;2023-01-13T13:40:43;3.50;;;1.30;;
62925;SDS011;55732;52.248;-0.844;2023-01-13T13:43:31;5.40;;;2.20;;
62925;SDS011;55732;52.248;-0.844;2023-01-13T13:49:06;3.50;;;1.40;;
62925;SDS011;55732;52.248;-0.844;2023-01-13T13:51:33;6.40;;;1.60;;
62925;SDS011;55732;52.248;-0.844;2023-01-13T13:54:04;4.40;;;1.20;;
62925;SDS011;55732;52.248;-0.844;2023-01-13T13:56:34;3.40;;;1.20;;
62925;SDS011;55732;52.248;-0.844;2023-01-13T13:59:14;5.20;;;1.50;;
62925;SDS011;55732;52.248;-0.844;2023-01-13T14:01:43;5.60;;;1.80;;
62925;SDS011;55732;52.248;-0.844;2023-01-13T14:06:35;4.90;;;1.40;;
62925;SDS011;55732;52.248;-0.844;2023-01-13T14:09:01;3.60;;;1.60;;
62925;SDS011;55732;52.248;-0.844;2023-01-13T14:11:28;2.90;;;1.50;;
62925;SDS011;55732;52.248;-0.844;2023-01-13T14:13:59;5.10;;;1.80;;
62925;SDS011;55732;52.248;-0.844;2023-01-13T14:16:27;3.20;;;1.60;;
62925;SDS011;55732;52.248;-0.844;2023-01-13T14:18:52;8.30;;;1.60;;
62925;SDS011;55732;52.248;-0.844;2023-01-13T14:23:56;8.40;;;1.80;;
62925;SDS011;55732;52.248;-0.844;2023-01-13T14:26:44;3.90;;;1.80;;
62925;SDS011;55732;52.248;-0.844;2023-01-13T14:29:15;7.70;;;1.90;;
62925;SDS011;55732;52.248;-0.844;2023-01-13T14:31:45;6.60;;;2.00;;
62925;SDS011;55732;52.248;-0.844;2023-01-13T14:34:13;3.80;;;1.30;;
62925;SDS011;55732;52.248;-0.844;2023-01-13T14:36:39;4.50;;;1.80;;
62925;SDS011;55732;52.248;-0.844;2023-01-13T14:41:32;2.10;;;1.00;;
62925;SDS011;55732;52.248;-0.844;2023-01-13T14:44:00;6.80;;;2.10;;
62925;SDS011;55732;52.248;-0.844;2023-01-13T14:46:40;4.40;;;1.50;;
62925;SDS011;55732;52.248;-0.844;2023-01-13T14:52:19;5.70;;;1.60;;
62925;SDS011;55732;52.248;-0.844;2023-01-13T14:57:31;7.80;;;2.00;;
62925;SDS011;55732;52.248;-0.844;2023-01-13T15:00:02;6.10;;;1.80;;
62925;SDS011;55732;52.248;-0.844;2023-01-13T15:04:53;5.00;;;1.80;;
62925;SDS011;55732;52.248;-0.844;2023-01-13T15:07:29;8.80;;;2.60;;
62925;SDS011;55732;52.248;-0.844;2023-01-13T15:09:59;8.00;;;2.50;;
62925;SDS011;55732;52.248;-0.844;2023-01-13T15:12:32;5.70;;;2.30;;
62925;SDS011;55732;52.248;-0.844;2023-01-13T15:15:02;5.90;;;1.90;;
62925;SDS011;55732;52.248;-0.844;2023-01-13T15:17:44;8.20;;;2.40;;
62925;SDS011;55732;52.248;-0.844;2023-01-13T15:20:18;6.60;;;1.70;;
62925;SDS011;55732;52.248;-0.844;2023-01-13T15:22:46;4.10;;;1.80;;
62925;SDS011;55732;52.248;-0.844;2023-01-13T15:25:12;4.00;;;1.90;;
62925;SDS011;55732;52.248;-0.844;2023-01-13T15:27:39;5.60;;;1.50;;
62925;SDS011;55732;52.248;-0.844;2023-01-13T15:30:18;8.20;;;2.00;;
62925;SDS011;55732;52.248;-0.844;2023-01-13T15:32:46;10.10;;;2.30;;
62925;SDS011;55732;52.248;-0.844;2023-01-13T15:35:12;8.10;;;2.10;;
62925;SDS011;55732;52.248;-0.844;2023-01-13T15:37:39;8.10;;;2.40;;
62925;SDS011;55732;52.248;-0.844;2023-01-13T15:40:20;7.30;;;2.00;;
62925;SDS011;55732;52.248;-0.844;2023-01-13T15:42:47;6.90;;;1.90;;
62925;SDS011;55732;52.248;-0.844;2023-01-13T15:45:31;8.70;;;2.00;;
62925;SDS011;55732;52.248;-0.844;2023-01-13T15:48:19;4.60;;;1.60;;
62925;SDS011;55732;52.248;-0.844;2023-01-13T15:50:46;8.10;;;2.00;;
62925;SDS011;55732;52.248;-0.844;2023-01-13T15:53:12;6.60;;;2.30;;
62925;SDS011;55732;52.248;-0.844;2023-01-13T15:55:38;7.20;;;1.80;;
62925;SDS011;55732;52.248;-0.844;2023-01-13T15:58:06;8.20;;;2.10;;
62925;SDS011;55732;52.248;-0.844;2023-01-13T16:00:32;11.60;;;2.30;;
62925;SDS011;55732;52.248;-0.844;2023-01-13T16:02:57;7.80;;;2.30;;
62925;SDS011;55732;52.248;-0.844;2023-01-13T16:05:24;4.80;;;1.80;;
62925;SDS011;55732;52.248;-0.844;2023-01-13T16:07:50;9.10;;;2.20;;
62925;SDS011;55732;52.248;-0.844;2023-01-13T16:10:17;5.00;;;2.00;;
62925;SDS011;55732;52.248;-0.844;2023-01-13T16:12:47;6.10;;;1.70;;
62925;SDS011;55732;52.248;-0.844;2023-01-13T16:15:13;8.90;;;1.80;;
62925;SDS011;55732;52.248;-0.844;2023-01-13T16:17:40;5.80;;;2.10;;
62925;SDS011;55732;52.248;-0.844;2023-01-13T16:20:11;11.40;;;2.10;;
62925;SDS011;55732;52.248;-0.844;2023-01-13T16:22:41;10.40;;;2.70;;
62925;SDS011;55732;52.248;-0.844;2023-01-13T16:25:09;8.90;;;2.30;;
62925;SDS011;55732;52.248;-0.844;2023-01-13T16:27:50;7.90;;;2.00;;
62925;SDS011;55732;52.248;-0.844;2023-01-13T16:30:24;6.50;;;2.20;;
62925;SDS011;55732;52.248;-0.844;2023-01-13T16:32:51;8.30;;;2.70;;
62925;SDS011;55732;52.248;-0.844;2023-01-13T16:35:17;10.20;;;2.20;;
62925;SDS011;55732;52.248;-0.844;2023-01-13T16:37:43;9.00;;;2.40;;
62925;SDS011;55732;52.248;-0.844;2023-01-13T16:40:34;8.80;;;2.50;;
62925;SDS011;55732;52.248;-0.844;2023-01-13T16:43:00;9.40;;;2.90;;
62925;SDS011;55732;52.248;-0.844;2023-01-13T16:45:28;12.30;;;2.60;;
62925;SDS011;55732;52.248;-0.844;2023-01-13T16:47:54;9.30;;;2.50;;
62925;SDS011;55732;52.248;-0.844;2023-01-13T16:50:30;4.00;;;2.10;;
62925;SDS011;55732;52.248;-0.844;2023-01-13T16:53:06;10.50;;;3.20;;
62925;SDS011;55732;52.248;-0.844;2023-01-13T16:55:36;5.10;;;2.30;;
62925;SDS011;55732;52.248;-0.844;2023-01-13T16:58:02;7.40;;;2.50;;
62925;SDS011;55732;52.248;-0.844;2023-01-13T17:00:28;9.00;;;3.10;;
62925;SDS011;55732;52.248;-0.844;2023-01-13T17:02:54;9.50;;;2.40;;
62925;SDS011;55732;52.248;-0.844;2023-01-13T17:05:23;8.30;;;2.30;;
62925;SDS011;55732;52.248;-0.844;2023-01-13T17:07:48;7.10;;;2.10;;
62925;SDS011;55732;52.248;-0.844;2023-01-13T17:10:15;9.70;;;2.70;;
62925;SDS011;55732;52.248;-0.844;2023-01-13T17:12:48;5.40;;;2.10;;